createdAt,value
2022-11-27T00:00:26.925Z,99923.29
2022-11-27T00:05:28.782Z,99919.10
2022-11-27T00:10:30.630Z,99919.77
2022-11-27T00:15:32.477Z,99919.95
2022-11-27T00:20:34.481Z,99921.29
2022-11-27T00:25:36.350Z,99922.44
2022-11-27T00:30:39.721Z,99926.70
2022-11-27T00:35:41.629Z,99930.05
2022-11-27T00:40:43.552Z,99925.91
2022-11-27T00:45:49.961Z,99931.38
2022-11-27T00:50:51.743Z,99930.72
2022-11-27T00:55:54.924Z,99931.43
2022-11-27T01:00:59.579Z,99930.90
2022-11-27T01:06:06.899Z,99928.13
2022-11-27T01:11:14.812Z,99931.14
2022-11-27T01:16:24.390Z,99930.13
2022-11-27T01:21:29.398Z,99929.40
2022-11-27T01:26:31.617Z,99929.45
2022-11-27T01:31:34.640Z,99924.74
2022-11-27T01:36:36.788Z,99925.91
2022-11-27T01:41:41.216Z,99927.16
2022-11-27T01:46:46.866Z,99927.07
2022-11-27T01:51:59.535Z,99929.76
2022-11-27T01:57:08.202Z,99924.80
2022-11-27T02:02:10.062Z,99921.19
2022-11-27T02:07:12.022Z,99919.28
2022-11-27T02:12:27.606Z,99919.83
2022-11-27T02:18:10.377Z,99920.98
2022-11-27T02:23:49.464Z,99921.71
2022-11-27T02:29:19.752Z,99923.53
2022-11-27T02:34:27.257Z,99925.75
2022-11-27T02:39:38.746Z,99927.69
2022-11-27T02:44:46.491Z,99927.89
2022-11-27T02:49:51.223Z,99926.88
2022-11-27T02:54:57.721Z,99928.48
2022-11-27T03:00:01.398Z,99934.00
2022-11-27T03:05:05.617Z,99938.09
2022-11-27T03:10:24.236Z,99938.92
2022-11-27T03:15:35.088Z,99944.02
2022-11-27T03:20:41.263Z,99948.15
2022-11-27T03:25:43.109Z,99942.00
2022-11-27T03:30:44.960Z,99941.05
2022-11-27T03:35:46.808Z,99937.13
2022-11-27T03:41:05.899Z,99930.24
2022-11-27T03:46:23.723Z,99931.33
2022-11-27T03:51:39.257Z,99926.37
2022-11-27T03:56:56.713Z,99926.87
2022-11-27T04:01:58.682Z,99928.33
2022-11-27T04:07:00.636Z,99924.80
2022-11-27T04:12:02.526Z,99928.05
2022-11-27T04:17:04.347Z,99929.39
2022-11-27T04:22:06.163Z,99925.58
2022-11-27T04:27:08.014Z,99930.34
2022-11-27T04:32:10.359Z,99928.05
2022-11-27T04:37:12.313Z,99934.16
2022-11-27T04:42:14.102Z,99933.07
2022-11-27T04:47:16.142Z,99938.75
2022-11-27T04:52:18.030Z,99937.18
2022-11-27T04:57:19.845Z,99931.50
2022-11-27T05:02:21.975Z,99922.20
2022-11-27T05:07:24.027Z,99916.35
2022-11-27T05:12:25.874Z,99912.08
2022-11-27T05:17:27.714Z,99915.98
2022-11-27T05:22:29.672Z,99913.27
2022-11-27T05:27:31.484Z,99913.86
2022-11-27T05:32:33.280Z,99915.02
2022-11-27T05:37:35.161Z,99910.22
2022-11-27T05:42:37.026Z,99911.62
2022-11-27T05:47:38.859Z,99913.39
2022-11-27T05:52:40.725Z,99910.37
2022-11-27T05:57:42.593Z,99906.56
2022-11-27T06:02:44.502Z,99908.55
2022-11-27T06:07:46.610Z,99909.80
2022-11-27T06:12:48.458Z,99909.23
2022-11-27T06:17:50.390Z,99899.91
2022-11-27T06:22:52.235Z,99896.77
2022-11-27T06:27:54.109Z,99894.98
2022-11-27T06:32:55.901Z,99902.73
2022-11-27T06:37:57.750Z,99911.73
2022-11-27T06:42:59.559Z,99918.70
2022-11-27T06:48:01.621Z,99925.52
2022-11-27T06:53:03.450Z,99929.58
2022-11-27T06:58:05.237Z,99930.30
2022-11-27T07:03:07.085Z,99934.08
2022-11-27T07:08:09.049Z,99933.91
2022-11-27T07:13:10.907Z,99934.02
2022-11-27T07:18:12.780Z,99935.18
2022-11-27T07:23:14.601Z,99933.33
2022-11-27T07:28:19.020Z,99939.11
2022-11-27T07:33:21.555Z,99933.86
2022-11-27T07:38:23.331Z,99931.27
2022-11-27T07:43:25.138Z,99929.08
2022-11-27T07:48:27.022Z,99939.68
2022-11-27T07:53:28.845Z,99937.02
2022-11-27T07:58:30.672Z,99933.30
2022-11-27T08:03:32.870Z,99937.65
2022-11-27T08:08:34.854Z,99938.18
2022-11-27T08:13:36.693Z,99940.94
2022-11-27T08:18:38.725Z,99947.92
2022-11-27T08:23:40.641Z,99950.00
2022-11-27T08:28:43.253Z,99953.44
2022-11-27T08:33:45.087Z,99958.43
2022-11-27T08:38:47.353Z,99956.69
2022-11-27T08:43:49.306Z,99955.69
2022-11-27T08:48:51.118Z,99948.52
2022-11-27T08:53:53.450Z,99949.33
2022-11-27T08:58:56.058Z,99950.33
2022-11-27T09:03:58.687Z,99950.52
2022-11-27T09:09:01.842Z,99953.43
2022-11-27T09:14:05.751Z,99955.52
2022-11-27T09:19:07.529Z,99954.94
2022-11-27T09:24:10.006Z,99943.95
2022-11-27T09:29:11.840Z,99948.03
2022-11-27T09:34:14.691Z,99944.32
2022-11-27T09:39:17.043Z,99941.54
2022-11-27T09:44:40.929Z,99938.14
2022-11-27T09:49:50.482Z,99936.77
2022-11-27T09:55:00.525Z,99932.87
2022-11-27T10:00:17.010Z,99917.87
2022-11-27T10:05:26.881Z,99906.42
2022-11-27T10:11:04.144Z,99908.77
2022-11-27T10:16:34.428Z,99903.84
2022-11-27T10:21:55.159Z,99899.30
2022-11-27T10:26:59.331Z,99894.73
2022-11-27T10:32:54.545Z,99891.77
2022-11-27T10:38:11.130Z,99885.48
2022-11-27T10:43:25.223Z,99878.40
2022-11-27T10:48:29.529Z,99875.27
2022-11-27T10:53:37.329Z,99874.95
2022-11-27T10:59:04.634Z,99870.31
2022-11-27T11:04:31.290Z,99872.14
2022-11-27T11:09:35.121Z,99876.70
2022-11-27T11:14:36.909Z,99868.29
2022-11-27T11:19:39.151Z,99859.20
2022-11-27T11:24:46.888Z,99853.52
2022-11-27T11:30:03.620Z,99853.99
2022-11-27T11:35:23.384Z,99845.66
2022-11-27T11:40:30.322Z,99837.45
2022-11-27T11:45:34.961Z,99837.23
2022-11-27T11:50:52.619Z,99833.23
2022-11-27T11:56:09.780Z,99826.63
2022-11-27T12:01:27.736Z,99822.61
2022-11-27T12:06:42.718Z,99813.73
2022-11-27T12:11:48.453Z,99808.19
2022-11-27T12:17:03.623Z,99802.95
2022-11-27T12:22:30.292Z,99806.73
2022-11-27T12:28:19.374Z,99805.10
2022-11-27T12:34:00.601Z,99800.57
2022-11-27T12:39:31.676Z,99800.70
2022-11-27T12:45:00.520Z,99805.25
2022-11-27T12:50:28.271Z,99805.48
2022-11-27T12:55:33.937Z,99810.61
2022-11-27T13:00:40.977Z,99806.56
2022-11-27T13:06:06.812Z,99799.72
2022-11-27T13:11:13.843Z,99803.87
2022-11-27T13:16:27.577Z,99800.67
2022-11-27T13:21:33.752Z,99798.64
2022-11-27T13:27:01.066Z,99798.90
2022-11-27T13:32:05.003Z,99791.05
2022-11-27T13:37:09.324Z,99788.95
2022-11-27T13:42:11.069Z,99788.73
2022-11-27T13:47:17.143Z,99786.67
2022-11-27T13:52:21.272Z,99784.42
2022-11-27T13:57:24.103Z,99783.93
2022-11-27T14:02:40.372Z,99787.57
2022-11-27T14:07:47.461Z,99786.57
2022-11-27T14:12:58.410Z,99789.73
2022-11-27T14:18:17.166Z,99786.11
2022-11-27T14:23:49.213Z,99792.10
2022-11-27T14:29:00.759Z,99790.83
2022-11-27T14:34:23.412Z,99788.35
2022-11-27T14:39:35.589Z,99790.13
2022-11-27T14:44:37.531Z,99792.80
2022-11-27T14:49:42.224Z,99786.88
2022-11-27T14:54:44.996Z,99786.30
2022-11-27T14:59:46.787Z,99778.30
2022-11-27T15:04:48.640Z,99769.71
2022-11-27T15:09:54.306Z,99766.21
2022-11-27T15:15:04.935Z,99761.23
2022-11-27T15:20:15.535Z,99754.39
2022-11-27T15:25:41.243Z,99746.42
2022-11-27T15:30:46.414Z,99741.15
2022-11-27T15:35:52.646Z,99737.19
2022-11-27T15:41:00.924Z,99735.38
2022-11-27T15:46:06.367Z,99738.52
2022-11-27T15:51:08.294Z,99737.85
2022-11-27T15:56:10.124Z,99730.63
2022-11-27T16:01:12.035Z,99729.01
2022-11-27T16:06:13.878Z,99719.86
2022-11-27T16:11:19.594Z,99714.89
2022-11-27T16:16:22.072Z,99714.20
2022-11-27T16:21:29.253Z,99707.92
2022-11-27T16:26:32.566Z,99699.02
2022-11-27T16:31:34.956Z,99702.98
2022-11-27T16:36:42.353Z,99701.21
2022-11-27T16:41:44.799Z,99690.48
2022-11-27T16:46:48.831Z,99688.04
2022-11-27T16:51:50.963Z,99684.13
2022-11-27T16:56:53.658Z,99677.45
2022-11-27T17:01:56.269Z,99675.55
2022-11-27T17:06:58.105Z,99681.14
2022-11-27T17:11:59.980Z,99677.83
2022-11-27T17:17:03.193Z,99675.14
2022-11-27T17:22:05.239Z,99668.15
2022-11-27T17:27:09.881Z,99668.89
2022-11-27T17:32:13.142Z,99666.80
2022-11-27T17:37:15.309Z,99662.08
2022-11-27T17:42:22.416Z,99657.67
2022-11-27T17:47:24.876Z,99653.04
2022-11-27T17:52:26.947Z,99656.09
2022-11-27T17:57:28.793Z,99662.61
2022-11-27T18:02:31.551Z,99661.30
2022-11-27T18:07:33.561Z,99660.86
2022-11-27T18:12:35.521Z,99661.02
2022-11-27T18:17:37.851Z,99657.33
2022-11-27T18:22:39.706Z,99660.83
2022-11-27T18:27:41.674Z,99646.67
2022-11-27T18:32:43.497Z,99639.36
2022-11-27T18:37:45.362Z,99635.02
2022-11-27T18:42:47.222Z,99620.33
2022-11-27T18:47:49.085Z,99616.50
2022-11-27T18:52:50.892Z,99617.04
2022-11-27T18:57:53.356Z,99598.98
2022-11-27T19:02:56.205Z,99588.31
2022-11-27T19:07:59.723Z,99588.45
2022-11-27T19:13:01.615Z,99596.84
2022-11-27T19:18:03.619Z,99581.91
2022-11-27T19:23:06.261Z,99579.66
2022-11-27T19:28:11.125Z,99581.95
2022-11-27T19:33:13.177Z,99576.63
2022-11-27T19:38:15.004Z,99576.11
2022-11-27T19:43:17.152Z,99568.65
2022-11-27T19:48:23.109Z,99565.75
2022-11-27T19:53:26.839Z,99567.47
2022-11-27T19:58:33.228Z,99563.83
2022-11-27T20:03:35.472Z,99566.34
2022-11-27T20:08:38.787Z,99569.94
2022-11-27T20:13:41.061Z,99569.55
2022-11-27T20:18:43.623Z,99573.09
2022-11-27T20:23:47.031Z,99569.85
2022-11-27T20:28:50.089Z,99560.86
2022-11-27T20:33:55.654Z,99561.14
2022-11-27T20:38:58.601Z,99554.60
2022-11-27T20:44:01.943Z,99548.08
2022-11-27T20:49:05.197Z,99553.04
2022-11-27T20:54:07.300Z,99553.23
2022-11-27T20:59:09.751Z,99544.41
2022-11-27T21:04:22.284Z,99548.58
2022-11-27T21:09:24.878Z,99545.41
2022-11-27T21:14:26.737Z,99542.27
2022-11-27T21:19:28.689Z,99534.48
2022-11-27T21:24:31.086Z,99526.56
2022-11-27T21:29:33.140Z,99517.98
2022-11-27T21:34:35.199Z,99505.98
2022-11-27T21:39:37.461Z,99496.30
2022-11-27T21:44:42.366Z,99487.29
2022-11-27T21:49:45.117Z,99478.33
2022-11-27T21:54:47.698Z,99467.70
2022-11-27T21:59:50.906Z,99455.66
2022-11-27T22:04:52.774Z,99451.60
2022-11-27T22:09:57.418Z,99448.56
2022-11-27T22:15:05.781Z,99443.75
2022-11-27T22:20:08.158Z,99450.23
2022-11-27T22:25:10.207Z,99447.92
2022-11-27T22:30:12.506Z,99444.39
2022-11-27T22:35:14.463Z,99439.73
2022-11-27T22:40:16.395Z,99437.45
2022-11-27T22:45:18.794Z,99440.52
2022-11-27T22:50:20.567Z,99440.27
2022-11-27T22:55:22.995Z,99441.10
2022-11-27T23:00:24.857Z,99439.38
2022-11-27T23:05:26.697Z,99439.37
2022-11-27T23:10:28.509Z,99435.69
2022-11-27T23:15:30.828Z,99441.86
2022-11-27T23:20:33.153Z,99441.34
2022-11-27T23:25:35.045Z,99439.98
2022-11-27T23:30:36.944Z,99440.38
2022-11-27T23:35:38.798Z,99437.30
2022-11-27T23:40:40.709Z,99440.89
2022-11-27T23:45:42.589Z,99440.79
2022-11-27T23:50:44.510Z,99435.35
2022-11-27T23:55:46.365Z,99427.73
